sensor_id;sensor_type;location;lat;lon;timestamp;pressure;altitude;pressure_sealevel;temperature;humidity
46007;BME280;31738;50.188;8.524;2023-06-14T00:01:41;98626.72;;;20.65;37.05
46007;BME280;31738;50.188;8.524;2023-06-14T00:04:06;98621.53;;;20.60;37.04
46007;BME280;31738;50.188;8.524;2023-06-14T00:06:34;98626.50;;;20.58;37.17
46007;BME280;31738;50.188;8.524;2023-06-14T00:08:59;98623.31;;;20.56;37.56
46007;BME280;31738;50.188;8.524;2023-06-14T00:11:25;98618.56;;;20.53;37.28
46007;BME280;31738;50.188;8.524;2023-06-14T00:13:52;98617.66;;;20.49;37.30
46007;BME280;31738;50.188;8.524;2023-06-14T00:16:18;98623.88;;;20.50;37.65
46007;BME280;31738;50.188;8.524;2023-06-14T00:18:45;98616.72;;;20.45;37.36
46007;BME280;31738;50.188;8.524;2023-06-14T00:21:11;98622.09;;;20.42;37.62
46007;BME280;31738;50.188;8.524;2023-06-14T00:23:37;98621.97;;;20.38;37.49
46007;BME280;31738;50.188;8.524;2023-06-14T00:26:03;98618.78;;;20.36;37.58
46007;BME280;31738;50.188;8.524;2023-06-14T00:28:29;98613.31;;;20.36;37.59
46007;BME280;31738;50.188;8.524;2023-06-14T00:30:54;98619.47;;;20.33;38.10
46007;BME280;31738;50.188;8.524;2023-06-14T00:33:20;98625.59;;;20.30;37.85
46007;BME280;31738;50.188;8.524;2023-06-14T00:35:46;98622.84;;;20.30;38.29
46007;BME280;31738;50.188;8.524;2023-06-14T00:38:12;98611.06;;;20.26;38.21
46007;BME280;31738;50.188;8.524;2023-06-14T00:40:39;98610.94;;;20.22;37.89
46007;BME280;31738;50.188;8.524;2023-06-14T00:43:05;98622.19;;;20.21;37.92
46007;BME280;31738;50.188;8.524;2023-06-14T00:45:31;98610.38;;;20.17;38.00
46007;BME280;31738;50.188;8.524;2023-06-14T00:48:01;98616.94;;;20.16;38.52
46007;BME280;31738;50.188;8.524;2023-06-14T00:50:28;98602.88;;;20.14;38.11
46007;BME280;31738;50.188;8.524;2023-06-14T00:52:56;98611.22;;;20.09;38.44
46007;BME280;31738;50.188;8.524;2023-06-14T00:55:21;98610.00;;;20.06;38.43
46007;BME280;31738;50.188;8.524;2023-06-14T00:57:47;98598.97;;;20.03;38.37
46007;BME280;31738;50.188;8.524;2023-06-14T01:00:14;98599.97;;;19.98;38.83
46007;BME280;31738;50.188;8.524;2023-06-14T01:02:40;98608.03;;;19.95;38.53
46007;BME280;31738;50.188;8.524;2023-06-14T01:05:08;98608.38;;;19.93;38.65
46007;BME280;31738;50.188;8.524;2023-06-14T01:07:57;98613.69;;;19.90;38.77
46007;BME280;31738;50.188;8.524;2023-06-14T01:10:40;98603.69;;;19.82;39.40
46007;BME280;31738;50.188;8.524;2023-06-14T01:13:13;98603.44;;;19.75;38.95
46007;BME280;31738;50.188;8.524;2023-06-14T01:15:43;98601.84;;;19.74;39.11
46007;BME280;31738;50.188;8.524;2023-06-14T01:18:09;98599.34;;;19.69;39.17
46007;BME280;31738;50.188;8.524;2023-06-14T01:20:44;98601.59;;;19.67;39.94
46007;BME280;31738;50.188;8.524;2023-06-14T01:23:20;98596.03;;;19.63;39.71
46007;BME280;31738;50.188;8.524;2023-06-14T01:25:46;98599.78;;;19.59;39.81
46007;BME280;31738;50.188;8.524;2023-06-14T01:28:14;98593.38;;;19.55;40.00
46007;BME280;31738;50.188;8.524;2023-06-14T01:30:44;98594.88;;;19.52;40.50
46007;BME280;31738;50.188;8.524;2023-06-14T01:33:21;98590.91;;;19.50;40.30
46007;BME280;31738;50.188;8.524;2023-06-14T01:35:48;98592.22;;;19.44;40.06
46007;BME280;31738;50.188;8.524;2023-06-14T01:38:15;98594.50;;;19.42;40.36
46007;BME280;31738;50.188;8.524;2023-06-14T01:40:43;98587.44;;;19.41;39.94
46007;BME280;31738;50.188;8.524;2023-06-14T01:43:10;98585.84;;;19.40;40.19
46007;BME280;31738;50.188;8.524;2023-06-14T01:45:37;98579.94;;;19.38;40.32
46007;BME280;31738;50.188;8.524;2023-06-14T01:48:04;98586.84;;;19.35;40.29
46007;BME280;31738;50.188;8.524;2023-06-14T01:50:31;98584.34;;;19.30;40.51
46007;BME280;31738;50.188;8.524;2023-06-14T01:52:57;98579.38;;;19.32;40.19
46007;BME280;31738;50.188;8.524;2023-06-14T01:55:23;98578.56;;;19.32;40.46
46007;BME280;31738;50.188;8.524;2023-06-14T01:57:50;98578.44;;;19.28;40.64
46007;BME280;31738;50.188;8.524;2023-06-14T02:00:17;98583.72;;;19.25;40.27
46007;BME280;31738;50.188;8.524;2023-06-14T02:02:44;98575.09;;;19.23;40.28
46007;BME280;31738;50.188;8.524;2023-06-14T02:05:10;98570.78;;;19.22;40.69
46007;BME280;31738;50.188;8.524;2023-06-14T02:07:36;98578.00;;;19.18;40.65
46007;BME280;31738;50.188;8.524;2023-06-14T02:10:03;98575.63;;;19.16;40.35
46007;BME280;31738;50.188;8.524;2023-06-14T02:12:28;98581.88;;;19.17;40.58
46007;BME280;31738;50.188;8.524;2023-06-14T02:14:57;98579.34;;;19.12;40.52
46007;BME280;31738;50.188;8.524;2023-06-14T02:17:23;98574.47;;;19.05;41.06
46007;BME280;31738;50.188;8.524;2023-06-14T02:19:49;98569.78;;;19.06;40.61
46007;BME280;31738;50.188;8.524;2023-06-14T02:22:16;98579.09;;;19.05;40.89
46007;BME280;31738;50.188;8.524;2023-06-14T02:24:42;98575.22;;;19.06;40.92
46007;BME280;31738;50.188;8.524;2023-06-14T02:27:08;98575.91;;;19.03;40.89
46007;BME280;31738;50.188;8.524;2023-06-14T02:29:36;98582.00;;;19.00;41.22
46007;BME280;31738;50.188;8.524;2023-06-14T02:32:04;98573.41;;;18.98;41.21
46007;BME280;31738;50.188;8.524;2023-06-14T02:34:30;98580.94;;;18.92;41.64
46007;BME280;31738;50.188;8.524;2023-06-14T02:36:55;98584.00;;;18.91;41.35
46007;BME280;31738;50.188;8.524;2023-06-14T02:39:22;98576.03;;;18.86;41.60
46007;BME280;31738;50.188;8.524;2023-06-14T02:41:49;98578.31;;;18.84;41.92
46007;BME280;31738;50.188;8.524;2023-06-14T02:44:17;98576.25;;;18.81;42.23
46007;BME280;31738;50.188;8.524;2023-06-14T02:46:43;98574.19;;;18.78;41.91
46007;BME280;31738;50.188;8.524;2023-06-14T02:49:11;98581.88;;;18.76;41.80
46007;BME280;31738;50.188;8.524;2023-06-14T02:51:37;98582.84;;;18.71;41.84
46007;BME280;31738;50.188;8.524;2023-06-14T02:54:02;98577.75;;;18.69;41.75
46007;BME280;31738;50.188;8.524;2023-06-14T02:56:29;98581.59;;;18.68;41.83
46007;BME280;31738;50.188;8.524;2023-06-14T02:58:55;98576.16;;;18.68;42.26
46007;BME280;31738;50.188;8.524;2023-06-14T03:01:22;98576.16;;;18.68;42.14
46007;BME280;31738;50.188;8.524;2023-06-14T03:03:49;98575.69;;;18.66;41.98
46007;BME280;31738;50.188;8.524;2023-06-14T03:06:14;98580.97;;;18.63;42.15
46007;BME280;31738;50.188;8.524;2023-06-14T03:08:43;98577.47;;;18.62;42.31
46007;BME280;31738;50.188;8.524;2023-06-14T03:11:13;98589.78;;;18.60;41.81
46007;BME280;31738;50.188;8.524;2023-06-14T03:13:39;98590.59;;;18.60;41.74
46007;BME280;31738;50.188;8.524;2023-06-14T03:16:06;98590.59;;;18.60;42.34
46007;BME280;31738;50.188;8.524;2023-06-14T03:18:36;98598.28;;;18.58;42.38
46007;BME280;31738;50.188;8.524;2023-06-14T03:21:04;98589.19;;;18.54;42.24
46007;BME280;31738;50.188;8.524;2023-06-14T03:23:31;98594.63;;;18.54;42.57
46007;BME280;31738;50.188;8.524;2023-06-14T03:25:56;98593.81;;;18.54;42.75
46007;BME280;31738;50.188;8.524;2023-06-14T03:28:22;98597.84;;;18.48;42.48
46007;BME280;31738;50.188;8.524;2023-06-14T03:30:48;98599.75;;;18.47;42.62
46007;BME280;31738;50.188;8.524;2023-06-14T03:33:14;98596.78;;;18.40;43.18
46007;BME280;31738;50.188;8.524;2023-06-14T03:35:40;98599.97;;;18.42;42.85
46007;BME280;31738;50.188;8.524;2023-06-14T03:38:07;98599.97;;;18.42;42.89
46007;BME280;31738;50.188;8.524;2023-06-14T03:40:33;98601.56;;;18.43;42.83
46007;BME280;31738;50.188;8.524;2023-06-14T03:43:02;98597.69;;;18.44;42.62
46007;BME280;31738;50.188;8.524;2023-06-14T03:45:27;98594.22;;;18.35;42.92
46007;BME280;31738;50.188;8.524;2023-06-14T03:47:53;98602.03;;;18.45;42.96
46007;BME280;31738;50.188;8.524;2023-06-14T03:50:20;98603.13;;;18.44;42.85
46007;BME280;31738;50.188;8.524;2023-06-14T03:52:48;98603.63;;;18.46;43.28
46007;BME280;31738;50.188;8.524;2023-06-14T03:55:14;98605.06;;;18.44;43.32
46007;BME280;31738;50.188;8.524;2023-06-14T03:57:41;98608.56;;;18.44;43.34
46007;BME280;31738;50.188;8.524;2023-06-14T04:00:11;98604.94;;;18.40;43.42
46007;BME280;31738;50.188;8.524;2023-06-14T04:02:40;98605.59;;;18.37;43.40
46007;BME280;31738;50.188;8.524;2023-06-14T04:05:07;98611.50;;;18.39;43.66
46007;BME280;31738;50.188;8.524;2023-06-14T04:07:36;98604.13;;;18.40;43.63
46007;BME280;31738;50.188;8.524;2023-06-14T04:10:11;98607.63;;;18.40;43.30
46007;BME280;31738;50.188;8.524;2023-06-14T04:12:37;98607.00;;;18.43;43.26
46007;BME280;31738;50.188;8.524;2023-06-14T04:15:03;98608.13;;;18.42;43.40
46007;BME280;31738;50.188;8.524;2023-06-14T04:17:29;98616.28;;;18.42;43.45
46007;BME280;31738;50.188;8.524;2023-06-14T04:19:55;98614.34;;;18.34;43.77
46007;BME280;31738;50.188;8.524;2023-06-14T04:22:24;98616.94;;;18.39;43.79
46007;BME280;31738;50.188;8.524;2023-06-14T04:24:55;98614.66;;;18.41;43.82
46007;BME280;31738;50.188;8.524;2023-06-14T04:27:26;98615.47;;;18.42;44.00
46007;BME280;31738;50.188;8.524;2023-06-14T04:29:52;98615.31;;;18.38;44.68
46007;BME280;31738;50.188;8.524;2023-06-14T04:32:24;98616.44;;;18.37;44.46
46007;BME280;31738;50.188;8.524;2023-06-14T04:34:53;98612.28;;;18.40;44.44
46007;BME280;31738;50.188;8.524;2023-06-14T04:37:23;98620.91;;;18.42;44.86
46007;BME280;31738;50.188;8.524;2023-06-14T04:39:49;98617.84;;;18.43;44.55
46007;BME280;31738;50.188;8.524;2023-06-14T04:42:16;98621.81;;;18.46;44.39
46007;BME280;31738;50.188;8.524;2023-06-14T04:44:43;98619.44;;;18.44;44.53
46007;BME280;31738;50.188;8.524;2023-06-14T04:47:10;98622.97;;;18.45;44.63
46007;BME280;31738;50.188;8.524;2023-06-14T04:49:38;98617.19;;;18.46;44.68
46007;BME280;31738;50.188;8.524;2023-06-14T04:52:06;98626.81;;;18.44;44.88
46007;BME280;31738;50.188;8.524;2023-06-14T04:54:37;98622.97;;;18.45;44.79
46007;BME280;31738;50.188;8.524;2023-06-14T04:57:04;98629.31;;;18.49;45.38
46007;BME280;31738;50.188;8.524;2023-06-14T04:59:31;98621.97;;;18.49;45.51
46007;BME280;31738;50.188;8.524;2023-06-14T05:01:59;98616.53;;;18.49;45.27
46007;BME280;31738;50.188;8.524;2023-06-14T05:04:25;98625.16;;;18.51;45.18
46007;BME280;31738;50.188;8.524;2023-06-14T05:06:52;98629.13;;;18.54;45.25
46007;BME280;31738;50.188;8.524;2023-06-14T05:09:20;98630.72;;;18.55;44.96
46007;BME280;31738;50.188;8.524;2023-06-14T05:11:46;98629.75;;;18.59;45.12
46007;BME280;31738;50.188;8.524;2023-06-14T05:14:13;98627.97;;;18.63;45.17
46007;BME280;31738;50.188;8.524;2023-06-14T05:16:39;98630.69;;;18.63;45.08
46007;BME280;31738;50.188;8.524;2023-06-14T05:19:05;98639.78;;;18.67;44.73
46007;BME280;31738;50.188;8.524;2023-06-14T05:21:30;98632.75;;;18.66;45.20
46007;BME280;31738;50.188;8.524;2023-06-14T05:23:59;98641.38;;;18.68;45.14
46007;BME280;31738;50.188;8.524;2023-06-14T05:26:27;98631.78;;;18.71;45.53
46007;BME280;31738;50.188;8.524;2023-06-14T05:28:56;98632.25;;;18.73;45.72
46007;BME280;31738;50.188;8.524;2023-06-14T05:31:25;98637.81;;;18.77;45.32
46007;BME280;31738;50.188;8.524;2023-06-14T05:33:51;98633.50;;;18.76;45.26
46007;BME280;31738;50.188;8.524;2023-06-14T05:36:17;98639.09;;;18.79;45.89
46007;BME280;31738;50.188;8.524;2023-06-14T05:38:43;98641.00;;;18.79;45.65
46007;BME280;31738;50.188;8.524;2023-06-14T05:41:09;98642.56;;;18.80;45.83
46007;BME280;31738;50.188;8.524;2023-06-14T05:43:34;98641.91;;;18.83;46.28
46007;BME280;31738;50.188;8.524;2023-06-14T05:46:00;98639.75;;;18.76;45.88
46007;BME280;31738;50.188;8.524;2023-06-14T05:48:25;98642.13;;;18.78;46.30
46007;BME280;31738;50.188;8.524;2023-06-14T05:50:51;98635.56;;;18.79;46.12
46007;BME280;31738;50.188;8.524;2023-06-14T05:53:16;98638.47;;;18.73;46.31
46007;BME280;31738;50.188;8.524;2023-06-14T05:55:42;98640.19;;;18.78;46.34
46007;BME280;31738;50.188;8.524;2023-06-14T05:58:07;98643.53;;;18.84;46.70
46007;BME280;31738;50.188;8.524;2023-06-14T06:00:33;98642.41;;;18.85;46.68
46007;BME280;31738;50.188;8.524;2023-06-14T06:02:58;98644.44;;;18.88;47.15
46007;BME280;31738;50.188;8.524;2023-06-14T06:05:24;98651.94;;;18.91;47.03
46007;BME280;31738;50.188;8.524;2023-06-14T06:07:51;98644.94;;;18.90;46.86
46007;BME280;31738;50.188;8.524;2023-06-14T06:10:16;98648.56;;;18.94;47.10
46007;BME280;31738;50.188;8.524;2023-06-14T06:12:42;98659.91;;;18.96;47.25
46007;BME280;31738;50.188;8.524;2023-06-14T06:15:08;98656.88;;;18.97;46.82
46007;BME280;31738;50.188;8.524;2023-06-14T06:17:37;98664.69;;;18.99;46.70
46007;BME280;31738;50.188;8.524;2023-06-14T06:20:04;98652.50;;;19.05;46.63
46007;BME280;31738;50.188;8.524;2023-06-14T06:22:31;98646.88;;;19.10;47.49
46007;BME280;31738;50.188;8.524;2023-06-14T06:24:56;98640.13;;;19.16;47.99
46007;BME280;31738;50.188;8.524;2023-06-14T06:27:22;98647.28;;;19.20;47.69
46007;BME280;31738;50.188;8.524;2023-06-14T06:29:47;98652.19;;;19.27;47.61
46007;BME280;31738;50.188;8.524;2023-06-14T06:32:15;98650.22;;;19.36;46.96
46007;BME280;31738;50.188;8.524;2023-06-14T06:34:40;98644.38;;;19.46;46.66
46007;BME280;31738;50.188;8.524;2023-06-14T06:37:06;98652.16;;;19.56;46.38
46007;BME280;31738;50.188;8.524;2023-06-14T06:39:31;98652.88;;;19.65;46.99
46007;BME280;31738;50.188;8.524;2023-06-14T06:41:57;98657.88;;;19.75;46.58
46007;BME280;31738;50.188;8.524;2023-06-14T06:44:31;98665.66;;;19.85;46.13
46007;BME280;31738;50.188;8.524;2023-06-14T06:46:57;98660.91;;;19.94;45.75
46007;BME280;31738;50.188;8.524;2023-06-14T06:49:23;98673.19;;;20.00;45.90
46007;BME280;31738;50.188;8.524;2023-06-14T06:52:02;98665.72;;;20.09;45.19
46007;BME280;31738;50.188;8.524;2023-06-14T06:54:28;98667.75;;;20.12;45.86
46007;BME280;31738;50.188;8.524;2023-06-14T06:56:54;98682.09;;;20.21;45.51
46007;BME280;31738;50.188;8.524;2023-06-14T06:59:19;98682.25;;;20.24;45.79
46007;BME280;31738;50.188;8.524;2023-06-14T07:01:46;98677.69;;;20.28;44.94
46007;BME280;31738;50.188;8.524;2023-06-14T07:04:12;98668.75;;;20.40;45.14
46007;BME280;31738;50.188;8.524;2023-06-14T07:06:37;98687.84;;;20.52;44.80
46007;BME280;31738;50.188;8.524;2023-06-14T07:09:03;98687.03;;;20.64;45.42
46007;BME280;31738;50.188;8.524;2023-06-14T07:11:30;98680.34;;;20.61;45.04
46007;BME280;31738;50.188;8.524;2023-06-14T07:13:56;98689.91;;;20.79;44.54
46007;BME280;31738;50.188;8.524;2023-06-14T07:16:21;98681.28;;;20.89;44.80
46007;BME280;31738;50.188;8.524;2023-06-14T07:18:47;98698.34;;;20.98;44.21
46007;BME280;31738;50.188;8.524;2023-06-14T07:21:12;98683.09;;;21.09;44.81
46007;BME280;31738;50.188;8.524;2023-06-14T07:23:38;98691.69;;;21.23;43.78
46007;BME280;31738;50.188;8.524;2023-06-14T07:26:03;98693.63;;;21.35;43.80
46007;BME280;31738;50.188;8.524;2023-06-14T07:28:29;98688.03;;;21.43;44.88
46007;BME280;31738;50.188;8.524;2023-06-14T07:30:54;98692.09;;;21.49;43.89
46007;BME280;31738;50.188;8.524;2023-06-14T07:33:20;98687.75;;;21.60;44.65
46007;BME280;31738;50.188;8.524;2023-06-14T07:35:45;98690.44;;;21.72;44.84
46007;BME280;31738;50.188;8.524;2023-06-14T07:38:11;98692.03;;;21.85;43.81
46007;BME280;31738;50.188;8.524;2023-06-14T07:40:36;98696.09;;;21.91;43.67
46007;BME280;31738;50.188;8.524;2023-06-14T07:43:02;98686.94;;;22.00;44.23
46007;BME280;31738;50.188;8.524;2023-06-14T07:45:27;98697.53;;;22.01;43.70
46007;BME280;31738;50.188;8.524;2023-06-14T07:47:53;98704.91;;;22.01;43.09
46007;BME280;31738;50.188;8.524;2023-06-14T07:50:18;98708.81;;;22.00;42.74
46007;BME280;31738;50.188;8.524;2023-06-14T07:52:44;98699.47;;;22.01;42.79
46007;BME280;31738;50.188;8.524;2023-06-14T07:55:10;98698.16;;;22.10;43.76
46007;BME280;31738;50.188;8.524;2023-06-14T07:57:35;98703.91;;;22.21;43.28
46007;BME280;31738;50.188;8.524;2023-06-14T08:00:01;98708.06;;;22.30;43.34
46007;BME280;31738;50.188;8.524;2023-06-14T08:02:26;98718.38;;;22.37;42.38
46007;BME280;31738;50.188;8.524;2023-06-14T08:04:52;98702.69;;;22.34;42.44
46007;BME280;31738;50.188;8.524;2023-06-14T08:07:17;98699.25;;;22.37;43.41
46007;BME280;31738;50.188;8.524;2023-06-14T08:09:43;98705.38;;;22.46;43.45
46007;BME280;31738;50.188;8.524;2023-06-14T08:12:08;98703.19;;;22.51;43.64
46007;BME280;31738;50.188;8.524;2023-06-14T08:14:39;98701.56;;;22.50;43.03
46007;BME280;31738;50.188;8.524;2023-06-14T08:17:04;98709.53;;;22.55;43.04
46007;BME280;31738;50.188;8.524;2023-06-14T08:19:30;98708.91;;;22.62;42.44
46007;BME280;31738;50.188;8.524;2023-06-14T08:21:56;98708.81;;;22.74;42.11
46007;BME280;31738;50.188;8.524;2023-06-14T08:24:22;98709.53;;;22.86;41.76
46007;BME280;31738;50.188;8.524;2023-06-14T08:26:53;98703.50;;;22.96;41.72
46007;BME280;31738;50.188;8.524;2023-06-14T08:29:18;98709.69;;;23.09;41.95
46007;BME280;31738;50.188;8.524;2023-06-14T08:31:44;98722.84;;;23.19;42.23
46007;BME280;31738;50.188;8.524;2023-06-14T08:34:09;98718.06;;;23.16;40.53
46007;BME280;31738;50.188;8.524;2023-06-14T08:36:35;98727.41;;;23.15;40.27
46007;BME280;31738;50.188;8.524;2023-06-14T08:39:01;98713.00;;;23.18;40.89
46007;BME280;31738;50.188;8.524;2023-06-14T08:41:28;98711.34;;;23.29;40.63
46007;BME280;31738;50.188;8.524;2023-06-14T08:43:56;98738.00;;;23.32;40.90
46007;BME280;31738;50.188;8.524;2023-06-14T08:46:23;98740.38;;;23.33;40.15
46007;BME280;31738;50.188;8.524;2023-06-14T08:48:55;98745.25;;;23.40;40.04
46007;BME280;31738;50.188;8.524;2023-06-14T08:51:22;98752.59;;;23.36;39.12
46007;BME280;31738;50.188;8.524;2023-06-14T08:53:52;98757.78;;;23.41;38.48
46007;BME280;31738;50.188;8.524;2023-06-14T08:56:18;98759.09;;;23.47;39.61
46007;BME280;31738;50.188;8.524;2023-06-14T08:58:46;98770.94;;;23.51;38.52
46007;BME280;31738;50.188;8.524;2023-06-14T09:01:13;98771.16;;;23.62;38.56
46007;BME280;31738;50.188;8.524;2023-06-14T09:03:40;98778.91;;;23.75;38.96
46007;BME280;31738;50.188;8.524;2023-06-14T09:06:07;98780.78;;;23.90;39.18
46007;BME280;31738;50.188;8.524;2023-06-14T09:08:34;98787.41;;;24.05;38.34
46007;BME280;31738;50.188;8.524;2023-06-14T09:11:01;98790.78;;;24.17;37.75
46007;BME280;31738;50.188;8.524;2023-06-14T09:13:27;98790.50;;;24.22;37.88
46007;BME280;31738;50.188;8.524;2023-06-14T09:15:53;98798.94;;;24.33;37.55
46007;BME280;31738;50.188;8.524;2023-06-14T09:18:19;98799.06;;;24.40;37.89
46007;BME280;31738;50.188;8.524;2023-06-14T09:20:47;98813.72;;;24.47;37.24
46007;BME280;31738;50.188;8.524;2023-06-14T09:23:13;98817.38;;;24.55;36.50
46007;BME280;31738;50.188;8.524;2023-06-14T09:25:43;98829.28;;;24.62;37.23
46007;BME280;31738;50.188;8.524;2023-06-14T09:28:11;98827.78;;;24.65;37.07
46007;BME280;31738;50.188;8.524;2023-06-14T09:30:37;98829.41;;;24.66;36.73
46007;BME280;31738;50.188;8.524;2023-06-14T09:33:03;98845.31;;;24.79;36.53
46007;BME280;31738;50.188;8.524;2023-06-14T09:35:31;98837.06;;;24.98;36.76
46007;BME280;31738;50.188;8.524;2023-06-14T09:37:56;98845.22;;;25.17;35.48
46007;BME280;31738;50.188;8.524;2023-06-14T09:40:22;98866.22;;;25.06;35.43
46007;BME280;31738;50.188;8.524;2023-06-14T09:42:47;98877.06;;;24.77;35.16
46007;BME280;31738;50.188;8.524;2023-06-14T09:45:13;98871.69;;;24.65;35.96
46007;BME280;31738;50.188;8.524;2023-06-14T09:47:39;98860.56;;;24.58;36.50
46007;BME280;31738;50.188;8.524;2023-06-14T09:50:05;98872.50;;;24.65;35.95
46007;BME280;31738;50.188;8.524;2023-06-14T09:52:31;98876.81;;;24.85;35.75
46007;BME280;31738;50.188;8.524;2023-06-14T09:54:58;98863.34;;;24.99;35.65
46007;BME280;31738;50.188;8.524;2023-06-14T09:57:25;98864.16;;;25.23;35.14
46007;BME280;31738;50.188;8.524;2023-06-14T09:59:57;98864.44;;;24.95;35.26
46007;BME280;31738;50.188;8.524;2023-06-14T10:02:32;98867.84;;;24.88;36.04
46007;BME280;31738;50.188;8.524;2023-06-14T10:05:07;98885.75;;;25.01;35.38
46007;BME280;31738;50.188;8.524;2023-06-14T10:07:53;98858.66;;;25.23;36.44
46007;BME280;31738;50.188;8.524;2023-06-14T10:10:21;98856.50;;;25.12;36.01
46007;BME280;31738;50.188;8.524;2023-06-14T10:12:47;98854.06;;;25.30;36.25
46007;BME280;31738;50.188;8.524;2023-06-14T10:15:32;98868.25;;;25.32;34.83
46007;BME280;31738;50.188;8.524;2023-06-14T10:18:13;98867.41;;;24.86;35.92
46007;BME280;31738;50.188;8.524;2023-06-14T10:23:42;98859.50;;;24.81;36.00
46007;BME280;31738;50.188;8.524;2023-06-14T10:26:08;98840.59;;;25.22;36.66
46007;BME280;31738;50.188;8.524;2023-06-14T10:28:37;98846.81;;;25.64;35.21
46007;BME280;31738;50.188;8.524;2023-06-14T10:33:33;98852.25;;;26.12;33.47
46007;BME280;31738;50.188;8.524;2023-06-14T10:39:00;98868.78;;;25.64;35.27
46007;BME280;31738;50.188;8.524;2023-06-14T10:41:27;98862.13;;;25.65;34.94
46007;BME280;31738;50.188;8.524;2023-06-14T10:46:35;98860.97;;;26.18;34.49
46007;BME280;31738;50.188;8.524;2023-06-14T10:49:01;98847.22;;;26.51;34.68
46007;BME280;31738;50.188;8.524;2023-06-14T10:51:29;98861.66;;;26.41;34.35
46007;BME280;31738;50.188;8.524;2023-06-14T10:53:57;98864.94;;;26.20;34.94
46007;BME280;31738;50.188;8.524;2023-06-14T10:56:29;98871.59;;;25.93;34.76
46007;BME280;31738;50.188;8.524;2023-06-14T10:58:57;98861.53;;;26.01;35.17
46007;BME280;31738;50.188;8.524;2023-06-14T11:04:49;98867.31;;;26.22;34.18
46007;BME280;31738;50.188;8.524;2023-06-14T11:10:37;98880.06;;;26.37;33.33
46007;BME280;31738;50.188;8.524;2023-06-14T11:13:03;98882.31;;;26.28;33.22
46007;BME280;31738;50.188;8.524;2023-06-14T11:15:30;98876.19;;;26.38;33.51
46007;BME280;31738;50.188;8.524;2023-06-14T11:17:56;98876.69;;;26.47;33.26
46007;BME280;31738;50.188;8.524;2023-06-14T11:20:27;98878.41;;;26.29;34.11
46007;BME280;31738;50.188;8.524;2023-06-14T11:22:53;98875.13;;;26.20;34.20
46007;BME280;31738;50.188;8.524;2023-06-14T11:25:19;98886.13;;;26.20;33.25
46007;BME280;31738;50.188;8.524;2023-06-14T11:27:45;98875.88;;;26.17;34.86
46007;BME280;31738;50.188;8.524;2023-06-14T11:30:14;98871.06;;;26.40;34.68
46007;BME280;31738;50.188;8.524;2023-06-14T11:32:42;98876.63;;;26.73;33.82
46007;BME280;31738;50.188;8.524;2023-06-14T11:35:08;98870.69;;;27.04;33.91
46007;BME280;31738;50.188;8.524;2023-06-14T11:37:36;98857.94;;;27.29;34.77
46007;BME280;31738;50.188;8.524;2023-06-14T11:40:03;98864.13;;;27.59;33.67
46007;BME280;31738;50.188;8.524;2023-06-14T11:42:33;98880.25;;;27.57;32.56
46007;BME280;31738;50.188;8.524;2023-06-14T11:44:59;98888.84;;;27.52;32.21
46007;BME280;31738;50.188;8.524;2023-06-14T11:47:31;98884.50;;;27.11;31.99
46007;BME280;31738;50.188;8.524;2023-06-14T11:49:58;98892.47;;;26.83;33.17
46007;BME280;31738;50.188;8.524;2023-06-14T11:52:24;98887.13;;;26.97;33.38
46007;BME280;31738;50.188;8.524;2023-06-14T11:54:49;98872.78;;;27.18;34.29
46007;BME280;31738;50.188;8.524;2023-06-14T11:57:17;98882.88;;;27.43;32.37
46007;BME280;31738;50.188;8.524;2023-06-14T11:59:43;98874.19;;;27.41;33.07
46007;BME280;31738;50.188;8.524;2023-06-14T12:02:14;98879.91;;;27.62;32.79
46007;BME280;31738;50.188;8.524;2023-06-14T12:04:48;98877.75;;;27.92;32.22
46007;BME280;31738;50.188;8.524;2023-06-14T12:07:15;98884.16;;;28.03;31.68
46007;BME280;31738;50.188;8.524;2023-06-14T12:12:26;98877.41;;;27.97;32.26
46007;BME280;31738;50.188;8.524;2023-06-14T12:14:53;98887.34;;;28.12;31.98
46007;BME280;31738;50.188;8.524;2023-06-14T12:17:19;98889.84;;;28.38;30.98
46007;BME280;31738;50.188;8.524;2023-06-14T12:19:49;98896.25;;;28.50;30.57
46007;BME280;31738;50.188;8.524;2023-06-14T12:22:16;98916.41;;;27.99;30.99
46007;BME280;31738;50.188;8.524;2023-06-14T12:24:43;98903.44;;;27.56;32.36
46007;BME280;31738;50.188;8.524;2023-06-14T12:27:08;98901.78;;;27.45;32.14
46007;BME280;31738;50.188;8.524;2023-06-14T12:29:35;98904.28;;;27.60;30.94
46007;BME280;31738;50.188;8.524;2023-06-14T12:32:01;98900.34;;;27.58;31.32
46007;BME280;31738;50.188;8.524;2023-06-14T12:34:27;98888.22;;;27.69;31.87
46007;BME280;31738;50.188;8.524;2023-06-14T12:36:53;98894.03;;;27.57;31.74
46007;BME280;31738;50.188;8.524;2023-06-14T12:39:19;98900.28;;;27.14;31.78
46007;BME280;31738;50.188;8.524;2023-06-14T12:41:46;98917.66;;;26.85;31.81
46007;BME280;31738;50.188;8.524;2023-06-14T12:44:12;98913.50;;;26.65;32.46
46007;BME280;31738;50.188;8.524;2023-06-14T12:46:38;98903.88;;;26.52;32.87
46007;BME280;31738;50.188;8.524;2023-06-14T12:49:05;98900.38;;;26.55;32.66
46007;BME280;31738;50.188;8.524;2023-06-14T12:51:32;98895.91;;;26.73;33.12
46007;BME280;31738;50.188;8.524;2023-06-14T12:53:57;98892.66;;;27.01;33.23
46007;BME280;31738;50.188;8.524;2023-06-14T12:56:23;98888.44;;;27.10;33.28
46007;BME280;31738;50.188;8.524;2023-06-14T12:58:48;98887.53;;;26.99;32.83
46007;BME280;31738;50.188;8.524;2023-06-14T13:01:14;98889.38;;;26.88;32.77
46007;BME280;31738;50.188;8.524;2023-06-14T13:03:39;98892.47;;;26.83;32.58
46007;BME280;31738;50.188;8.524;2023-06-14T13:06:05;98891.72;;;26.86;33.03
46007;BME280;31738;50.188;8.524;2023-06-14T13:08:31;98888.63;;;26.91;33.11
46007;BME280;31738;50.188;8.524;2023-06-14T13:10:56;98888.56;;;26.84;33.30
46007;BME280;31738;50.188;8.524;2023-06-14T13:13:23;98896.88;;;26.58;32.29
46007;BME280;31738;50.188;8.524;2023-06-14T13:15:49;98902.69;;;26.23;32.59
46007;BME280;31738;50.188;8.524;2023-06-14T13:18:15;98892.28;;;26.10;33.51
46007;BME280;31738;50.188;8.524;2023-06-14T13:20:41;98893.25;;;26.21;33.88